sensor_id;sensor_type;location;lat;lon;timestamp;pressure;altitude;pressure_sealevel;temperature;humidity
60871;BME280;46714;50.118;14.462;2022-08-20T00:00:44;98480.19;;;18.25;100.00
60871;BME280;46714;50.118;14.462;2022-08-20T00:03:14;98485.44;;;18.27;100.00
60871;BME280;46714;50.118;14.462;2022-08-20T00:05:44;98485.72;;;18.30;100.00
60871;BME280;46714;50.118;14.462;2022-08-20T00:08:18;98483.78;;;18.31;100.00
60871;BME280;46714;50.118;14.462;2022-08-20T00:10:45;98497.56;;;18.31;100.00
60871;BME280;46714;50.118;14.462;2022-08-20T00:13:13;98495.88;;;18.30;100.00
60871;BME280;46714;50.118;14.462;2022-08-20T00:15:41;98486.81;;;18.29;100.00
60871;BME280;46714;50.118;14.462;2022-08-20T00:18:07;98485.44;;;18.27;100.00
60871;BME280;46714;50.118;14.462;2022-08-20T00:20:35;98490.69;;;18.28;100.00
60871;BME280;46714;50.118;14.462;2022-08-20T00:23:03;98497.56;;;18.26;100.00
60871;BME280;46714;50.118;14.462;2022-08-20T00:25:29;98494.81;;;18.26;100.00
60871;BME280;46714;50.118;14.462;2022-08-20T00:27:55;98498.94;;;18.23;100.00
60871;BME280;46714;50.118;14.462;2022-08-20T00:30:22;98503.34;;;18.24;100.00
60871;BME280;46714;50.118;14.462;2022-08-20T00:32:54;98501.69;;;18.23;100.00
60871;BME280;46714;50.118;14.462;2022-08-20T00:35:23;98494.81;;;18.26;100.00
60871;BME280;46714;50.118;14.462;2022-08-20T00:37:51;98496.72;;;18.25;100.00
60871;BME280;46714;50.118;14.462;2022-08-20T00:40:19;98503.59;;;18.28;100.00
60871;BME280;46714;50.118;14.462;2022-08-20T00:42:52;98499.50;;;18.30;100.00
60871;BME280;46714;50.118;14.462;2022-08-20T00:45:21;98501.16;;;18.26;100.00
60871;BME280;46714;50.118;14.462;2022-08-20T00:47:47;98497.00;;;18.29;100.00
60871;BME280;46714;50.118;14.462;2022-08-20T00:50:16;98489.56;;;18.29;100.00
60871;BME280;46714;50.118;14.462;2022-08-20T00:52:44;98498.66;;;18.35;100.00
60871;BME280;46714;50.118;14.462;2022-08-20T00:55:15;98495.06;;;18.29;100.00
60871;BME280;46714;50.118;14.462;2022-08-20T00:57:46;98481.56;;;18.28;100.00
60871;BME280;46714;50.118;14.462;2022-08-20T01:00:22;98483.53;;;18.22;100.00
60871;BME280;46714;50.118;14.462;2022-08-20T01:02:50;98491.53;;;18.18;100.00
60871;BME280;46714;50.118;14.462;2022-08-20T01:05:17;98488.75;;;18.18;100.00
60871;BME280;46714;50.118;14.462;2022-08-20T01:07:43;98502.81;;;18.22;100.00
60871;BME280;46714;50.118;14.462;2022-08-20T01:10:12;98494.81;;;18.20;100.00
60871;BME280;46714;50.118;14.462;2022-08-20T01:12:41;98493.47;;;18.18;100.00
60871;BME280;46714;50.118;14.462;2022-08-20T01:15:10;98494.00;;;18.20;100.00
60871;BME280;46714;50.118;14.462;2022-08-20T01:17:40;98482.97;;;18.20;100.00
60871;BME280;46714;50.118;14.462;2022-08-20T01:20:12;98483.81;;;18.15;100.00
60871;BME280;46714;50.118;14.462;2022-08-20T01:25:41;98474.16;;;18.18;100.00
60871;BME280;46714;50.118;14.462;2022-08-20T01:28:11;98468.66;;;18.18;100.00
60871;BME280;46714;50.118;14.462;2022-08-20T01:30:38;98470.34;;;18.19;100.00
60871;BME280;46714;50.118;14.462;2022-08-20T01:33:04;98480.78;;;18.12;100.00
60871;BME280;46714;50.118;14.462;2022-08-20T01:35:33;98476.38;;;18.16;100.00
60871;BME280;46714;50.118;14.462;2022-08-20T01:38:01;98479.41;;;18.19;100.00
60871;BME280;46714;50.118;14.462;2022-08-20T01:40:31;98480.81;;;18.17;100.00
60871;BME280;46714;50.118;14.462;2022-08-20T01:43:08;98479.44;;;18.14;100.00
60871;BME280;46714;50.118;14.462;2022-08-20T01:45:35;98494.28;;;18.18;100.00
60871;BME280;46714;50.118;14.462;2022-08-20T01:48:01;98487.97;;;18.13;100.00
60871;BME280;46714;50.118;14.462;2022-08-20T01:50:27;98485.22;;;18.13;100.00
60871;BME280;46714;50.118;14.462;2022-08-20T01:55:28;98485.19;;;18.18;100.00
60871;BME280;46714;50.118;14.462;2022-08-20T01:57:55;98475.84;;;18.14;100.00
60871;BME280;46714;50.118;14.462;2022-08-20T02:00:21;98487.69;;;18.14;100.00
60871;BME280;46714;50.118;14.462;2022-08-20T02:02:48;98476.13;;;18.12;100.00
60871;BME280;46714;50.118;14.462;2022-08-20T02:05:13;98480.25;;;18.15;100.00
60871;BME280;46714;50.118;14.462;2022-08-20T02:07:39;98475.56;;;18.15;100.00
60871;BME280;46714;50.118;14.462;2022-08-20T02:10:05;98471.16;;;18.14;100.00
60871;BME280;46714;50.118;14.462;2022-08-20T02:12:33;98467.56;;;18.19;100.00
60871;BME280;46714;50.118;14.462;2022-08-20T02:14:59;98480.22;;;18.20;100.00
60871;BME280;46714;50.118;14.462;2022-08-20T02:17:24;98477.75;;;18.24;100.00
60871;BME280;46714;50.118;14.462;2022-08-20T02:19:59;98476.66;;;18.19;100.00
60871;BME280;46714;50.118;14.462;2022-08-20T02:25:03;98486.59;;;18.15;100.00
60871;BME280;46714;50.118;14.462;2022-08-20T02:27:30;98481.34;;;18.19;100.00
60871;BME280;46714;50.118;14.462;2022-08-20T02:29:56;98481.03;;;18.20;100.00
60871;BME280;46714;50.118;14.462;2022-08-20T02:32:21;98479.69;;;18.18;100.00
60871;BME280;46714;50.118;14.462;2022-08-20T02:34:47;98489.31;;;18.20;100.00
60871;BME280;46714;50.118;14.462;2022-08-20T02:37:13;98491.78;;;18.22;100.00
60871;BME280;46714;50.118;14.462;2022-08-20T02:39:40;98482.13;;;18.25;100.00
60871;BME280;46714;50.118;14.462;2022-08-20T02:42:06;98483.25;;;18.24;100.00
60871;BME280;46714;50.118;14.462;2022-08-20T02:44:33;98485.44;;;18.27;100.00
60871;BME280;46714;50.118;14.462;2022-08-20T02:46:59;98483.22;;;18.29;100.00
60871;BME280;46714;50.118;14.462;2022-08-20T02:49:25;98478.81;;;18.33;100.00
60871;BME280;46714;50.118;14.462;2022-08-20T02:51:51;98482.09;;;18.35;100.00
60871;BME280;46714;50.118;14.462;2022-08-20T02:54:16;98488.13;;;18.37;100.00
60871;BME280;46714;50.118;14.462;2022-08-20T02:56:42;98484.03;;;18.39;100.00
60871;BME280;46714;50.118;14.462;2022-08-20T02:59:07;98479.03;;;18.41;100.00
60871;BME280;46714;50.118;14.462;2022-08-20T03:01:33;98479.56;;;18.43;100.00
60871;BME280;46714;50.118;14.462;2022-08-20T03:03:58;98482.88;;;18.46;100.00
60871;BME280;46714;50.118;14.462;2022-08-20T03:06:24;98484.25;;;18.43;100.00
60871;BME280;46714;50.118;14.462;2022-08-20T03:08:51;98487.84;;;18.43;100.00
60871;BME280;46714;50.118;14.462;2022-08-20T03:11:18;98485.94;;;18.44;100.00
60871;BME280;46714;50.118;14.462;2022-08-20T03:13:44;98474.06;;;18.43;100.00
60871;BME280;46714;50.118;14.462;2022-08-20T03:16:10;98471.28;;;18.43;100.00
60871;BME280;46714;50.118;14.462;2022-08-20T03:18:38;98464.16;;;18.42;100.00
60871;BME280;46714;50.118;14.462;2022-08-20T03:21:07;98462.22;;;18.43;100.00
60871;BME280;46714;50.118;14.462;2022-08-20T03:23:33;98457.53;;;18.43;100.00
60871;BME280;46714;50.118;14.462;2022-08-20T03:26:00;98454.75;;;18.43;100.00
60871;BME280;46714;50.118;14.462;2022-08-20T03:28:26;98452.31;;;18.42;100.00
60871;BME280;46714;50.118;14.462;2022-08-20T03:30:52;98455.88;;;18.42;100.00
60871;BME280;46714;50.118;14.462;2022-08-20T03:33:19;98453.94;;;18.43;100.00
60871;BME280;46714;50.118;14.462;2022-08-20T03:35:45;98456.69;;;18.43;100.00
60871;BME280;46714;50.118;14.462;2022-08-20T03:38:11;98456.97;;;18.41;100.00
60871;BME280;46714;50.118;14.462;2022-08-20T03:40:38;98451.19;;;18.43;100.00
60871;BME280;46714;50.118;14.462;2022-08-20T03:43:05;98456.97;;;18.41;100.00
60871;BME280;46714;50.118;14.462;2022-08-20T03:45:33;98463.34;;;18.42;100.00
60871;BME280;46714;50.118;14.462;2022-08-20T03:48:00;98460.84;;;18.40;100.00
60871;BME280;46714;50.118;14.462;2022-08-20T03:50:27;98464.72;;;18.39;100.00
60871;BME280;46714;50.118;14.462;2022-08-20T03:52:54;98461.13;;;18.39;100.00
60871;BME280;46714;50.118;14.462;2022-08-20T03:55:22;98459.50;;;18.38;100.00
60871;BME280;46714;50.118;14.462;2022-08-20T03:57:50;98457.00;;;18.36;100.00
60871;BME280;46714;50.118;14.462;2022-08-20T04:00:28;98453.97;;;18.38;100.00
60871;BME280;46714;50.118;14.462;2022-08-20T04:02:56;98464.72;;;18.39;100.00
60871;BME280;46714;50.118;14.462;2022-08-20T04:05:23;98473.81;;;18.40;100.00
60871;BME280;46714;50.118;14.462;2022-08-20T04:07:49;98471.34;;;18.38;100.00
60871;BME280;46714;50.118;14.462;2022-08-20T04:10:15;98471.34;;;18.38;100.00
60871;BME280;46714;50.118;14.462;2022-08-20T04:12:41;98480.41;;;18.39;100.00
60871;BME280;46714;50.118;14.462;2022-08-20T04:15:10;98481.25;;;18.39;100.00
60871;BME280;46714;50.118;14.462;2022-08-20T04:17:39;98473.25;;;18.38;100.00
60871;BME280;46714;50.118;14.462;2022-08-20T04:20:07;98484.56;;;18.36;100.00
60871;BME280;46714;50.118;14.462;2022-08-20T04:22:34;98484.56;;;18.36;100.00
60871;BME280;46714;50.118;14.462;2022-08-20T04:24:59;98495.03;;;18.34;100.00
60871;BME280;46714;50.118;14.462;2022-08-20T04:27:25;98485.13;;;18.33;100.00
60871;BME280;46714;50.118;14.462;2022-08-20T04:29:50;98491.47;;;18.34;100.00
60871;BME280;46714;50.118;14.462;2022-08-20T04:32:15;98485.97;;;18.34;100.00
60871;BME280;46714;50.118;14.462;2022-08-20T04:34:41;98492.28;;;18.34;100.00
60871;BME280;46714;50.118;14.462;2022-08-20T04:37:08;98488.72;;;18.34;100.00
60871;BME280;46714;50.118;14.462;2022-08-20T04:39:35;98499.47;;;18.35;100.00
60871;BME280;46714;50.118;14.462;2022-08-20T04:42:00;98499.47;;;18.35;100.00
60871;BME280;46714;50.118;14.462;2022-08-20T04:44:26;98491.75;;;18.37;100.00
60871;BME280;46714;50.118;14.462;2022-08-20T04:46:51;98500.81;;;18.38;100.00
60871;BME280;46714;50.118;14.462;2022-08-20T04:49:17;98506.06;;;18.34;100.00
60871;BME280;46714;50.118;14.462;2022-08-20T04:51:43;98509.66;;;18.35;100.00
60871;BME280;46714;50.118;14.462;2022-08-20T04:54:08;98508.00;;;18.34;100.00
60871;BME280;46714;50.118;14.462;2022-08-20T04:56:34;98511.03;;;18.32;100.00
60871;BME280;46714;50.118;14.462;2022-08-20T04:59:03;98512.97;;;18.32;100.00
60871;BME280;46714;50.118;14.462;2022-08-20T05:01:29;98514.09;;;18.31;100.00
60871;BME280;46714;50.118;14.462;2022-08-20T05:03:55;98515.72;;;18.32;100.00
60871;BME280;46714;50.118;14.462;2022-08-20T05:06:22;98519.84;;;18.34;100.00
60871;BME280;46714;50.118;14.462;2022-08-20T05:08:49;98523.16;;;18.31;100.00
60871;BME280;46714;50.118;14.462;2022-08-20T05:11:15;98524.28;;;18.30;100.00
60871;BME280;46714;50.118;14.462;2022-08-20T05:13:41;98525.09;;;18.31;100.00
60871;BME280;46714;50.118;14.462;2022-08-20T05:16:07;98519.59;;;18.31;100.00
60871;BME280;46714;50.118;14.462;2022-08-20T05:18:33;98526.75;;;18.32;100.00
60871;BME280;46714;50.118;14.462;2022-08-20T05:20:59;98533.06;;;18.32;100.00
60871;BME280;46714;50.118;14.462;2022-08-20T05:23:32;98528.94;;;18.30;100.00
60871;BME280;46714;50.118;14.462;2022-08-20T05:25:59;98529.81;;;18.30;100.00
60871;BME280;46714;50.118;14.462;2022-08-20T05:28:26;98515.72;;;18.32;100.00
60871;BME280;46714;50.118;14.462;2022-08-20T05:30:57;98519.59;;;18.31;100.00
60871;BME280;46714;50.118;14.462;2022-08-20T05:33:23;98514.91;;;18.31;100.00
60871;BME280;46714;50.118;14.462;2022-08-20T05:35:50;98515.16;;;18.30;100.00
60871;BME280;46714;50.118;14.462;2022-08-20T05:38:17;98519.88;;;18.24;100.00
60871;BME280;46714;50.118;14.462;2022-08-20T05:40:46;98528.72;;;18.16;100.00
60871;BME280;46714;50.118;14.462;2022-08-20T05:43:12;98526.53;;;18.13;100.00
60871;BME280;46714;50.118;14.462;2022-08-20T05:45:38;98525.47;;;18.04;100.00
60871;BME280;46714;50.118;14.462;2022-08-20T05:48:09;98528.22;;;17.93;100.00
60871;BME280;46714;50.118;14.462;2022-08-20T05:50:37;98528.00;;;17.85;100.00
60871;BME280;46714;50.118;14.462;2022-08-20T05:53:03;98526.63;;;17.82;100.00
60871;BME280;46714;50.118;14.462;2022-08-20T05:55:29;98530.16;;;17.72;100.00
60871;BME280;46714;50.118;14.462;2022-08-20T05:57:56;98535.41;;;17.69;100.00
60871;BME280;46714;50.118;14.462;2022-08-20T06:00:26;98535.38;;;17.64;100.00
60871;BME280;46714;50.118;14.462;2022-08-20T06:02:52;98531.56;;;17.59;100.00
60871;BME280;46714;50.118;14.462;2022-08-20T06:05:36;98535.97;;;17.55;100.00
60871;BME280;46714;50.118;14.462;2022-08-20T06:08:03;98536.78;;;17.51;100.00
60871;BME280;46714;50.118;14.462;2022-08-20T06:10:29;98544.22;;;17.50;100.00
60871;BME280;46714;50.118;14.462;2022-08-20T06:12:55;98550.25;;;17.47;100.00
60871;BME280;46714;50.118;14.462;2022-08-20T06:15:21;98544.50;;;17.44;100.00
60871;BME280;46714;50.118;14.462;2022-08-20T06:17:46;98547.25;;;17.44;100.00
60871;BME280;46714;50.118;14.462;2022-08-20T06:20:11;98548.63;;;17.46;100.00
60871;BME280;46714;50.118;14.462;2022-08-20T06:22:37;98543.38;;;17.50;100.00
60871;BME280;46714;50.118;14.462;2022-08-20T06:25:03;98552.19;;;17.52;100.00
60871;BME280;46714;50.118;14.462;2022-08-20T06:27:30;98552.75;;;17.54;100.00
60871;BME280;46714;50.118;14.462;2022-08-20T06:29:56;98544.78;;;17.57;100.00
60871;BME280;46714;50.118;14.462;2022-08-20T06:32:21;98550.84;;;17.59;100.00
60871;BME280;46714;50.118;14.462;2022-08-20T06:34:48;98556.88;;;17.62;100.00
60871;BME280;46714;50.118;14.462;2022-08-20T06:37:16;98545.88;;;17.62;100.00
60871;BME280;46714;50.118;14.462;2022-08-20T06:39:47;98564.31;;;17.61;100.00
60871;BME280;46714;50.118;14.462;2022-08-20T06:42:13;98561.28;;;17.57;100.00
60871;BME280;46714;50.118;14.462;2022-08-20T06:44:38;98553.03;;;17.57;100.00
60871;BME280;46714;50.118;14.462;2022-08-20T06:47:04;98557.72;;;17.57;100.00
60871;BME280;46714;50.118;14.462;2022-08-20T06:49:30;98559.09;;;17.59;100.00
60871;BME280;46714;50.118;14.462;2022-08-20T06:51:58;98563.22;;;17.62;100.00
60871;BME280;46714;50.118;14.462;2022-08-20T06:54:24;98563.47;;;17.66;100.00
60871;BME280;46714;50.118;14.462;2022-08-20T06:56:49;98570.66;;;17.67;100.00
60871;BME280;46714;50.118;14.462;2022-08-20T06:59:18;98560.19;;;17.69;100.00
60871;BME280;46714;50.118;14.462;2022-08-20T07:01:44;98565.69;;;17.74;100.00
60871;BME280;46714;50.118;14.462;2022-08-20T07:04:09;98569.00;;;17.76;100.00
60871;BME280;46714;50.118;14.462;2022-08-20T07:06:34;98575.03;;;17.78;100.00
60871;BME280;46714;50.118;14.462;2022-08-20T07:09:00;98581.94;;;17.75;100.00
60871;BME280;46714;50.118;14.462;2022-08-20T07:11:25;98584.94;;;17.79;100.00
60871;BME280;46714;50.118;14.462;2022-08-20T07:13:51;98583.31;;;17.83;100.00
60871;BME280;46714;50.118;14.462;2022-08-20T07:16:16;98588.84;;;17.83;100.00
60871;BME280;46714;50.118;14.462;2022-08-20T07:18:41;98585.25;;;17.88;100.00
60871;BME280;46714;50.118;14.462;2022-08-20T07:21:07;98589.91;;;17.92;100.00
60871;BME280;46714;50.118;14.462;2022-08-20T07:23:32;98592.41;;;17.94;100.00
60871;BME280;46714;50.118;14.462;2022-08-20T07:25:58;98597.63;;;17.95;100.00
60871;BME280;46714;50.118;14.462;2022-08-20T07:28:24;98592.41;;;17.84;100.00
60871;BME280;46714;50.118;14.462;2022-08-20T07:30:55;98598.19;;;17.87;100.00
60871;BME280;46714;50.118;14.462;2022-08-20T07:33:40;98597.38;;;17.87;100.00
60871;BME280;46714;50.118;14.462;2022-08-20T07:36:07;98601.47;;;17.84;100.00
60871;BME280;46714;50.118;14.462;2022-08-20T07:38:33;98608.63;;;17.80;100.00
60871;BME280;46714;50.118;14.462;2022-08-20T07:41:03;98609.22;;;17.82;100.00
60871;BME280;46714;50.118;14.462;2022-08-20T07:43:31;98606.97;;;17.79;100.00
60871;BME280;46714;50.118;14.462;2022-08-20T07:45:57;98607.81;;;17.64;100.00
60871;BME280;46714;50.118;14.462;2022-08-20T07:48:31;98608.59;;;17.49;100.00
60871;BME280;46714;50.118;14.462;2022-08-20T07:50:57;98614.94;;;17.40;100.00
60871;BME280;46714;50.118;14.462;2022-08-20T07:53:25;98616.00;;;17.33;100.00
60871;BME280;46714;50.118;14.462;2022-08-20T07:55:51;98616.53;;;17.20;100.00
60871;BME280;46714;50.118;14.462;2022-08-20T07:58:18;98614.91;;;17.19;100.00
60871;BME280;46714;50.118;14.462;2022-08-20T08:00:46;98614.59;;;17.15;100.00
60871;BME280;46714;50.118;14.462;2022-08-20T08:03:12;98614.59;;;17.15;100.00
60871;BME280;46714;50.118;14.462;2022-08-20T08:05:39;98623.94;;;17.09;100.00
60871;BME280;46714;50.118;14.462;2022-08-20T08:08:07;98617.06;;;17.07;100.00
60871;BME280;46714;50.118;14.462;2022-08-20T08:10:36;98623.66;;;17.06;100.00
60871;BME280;46714;50.118;14.462;2022-08-20T08:13:03;98612.09;;;17.04;100.00
60871;BME280;46714;50.118;14.462;2022-08-20T08:15:32;98619.53;;;17.03;100.00
60871;BME280;46714;50.118;14.462;2022-08-20T08:18:04;98614.03;;;17.08;100.00
60871;BME280;46714;50.118;14.462;2022-08-20T08:20:35;98632.19;;;17.09;100.00
60871;BME280;46714;50.118;14.462;2022-08-20T08:23:04;98626.69;;;17.09;100.00
60871;BME280;46714;50.118;14.462;2022-08-20T08:25:30;98634.94;;;17.04;100.00
60871;BME280;46714;50.118;14.462;2022-08-20T08:27:57;98634.66;;;17.11;100.00
60871;BME280;46714;50.118;14.462;2022-08-20T08:30:24;98649.78;;;17.08;100.00
60871;BME280;46714;50.118;14.462;2022-08-20T08:32:50;98645.66;;;17.06;100.00
60871;BME280;46714;50.118;14.462;2022-08-20T08:35:36;98648.41;;;17.11;100.00
60871;BME280;46714;50.118;14.462;2022-08-20T08:38:02;98648.69;;;17.09;100.00
60871;BME280;46714;50.118;14.462;2022-08-20T08:40:29;98655.84;;;17.10;100.00
60871;BME280;46714;50.118;14.462;2022-08-20T08:42:55;98653.66;;;17.17;100.00
60871;BME280;46714;50.118;14.462;2022-08-20T08:45:26;98656.41;;;17.12;100.00
60871;BME280;46714;50.118;14.462;2022-08-20T08:47:59;98663.53;;;17.08;100.00
60871;BME280;46714;50.118;14.462;2022-08-20T08:50:27;98659.13;;;17.02;100.00
60871;BME280;46714;50.118;14.462;2022-08-20T08:52:57;98653.63;;;17.02;100.00
60871;BME280;46714;50.118;14.462;2022-08-20T08:55:25;98654.44;;;17.03;100.00
60871;BME280;46714;50.118;14.462;2022-08-20T08:57:52;98653.88;;;16.95;100.00
60871;BME280;46714;50.118;14.462;2022-08-20T09:00:20;98653.34;;;17.04;100.00
60871;BME280;46714;50.118;14.462;2022-08-20T09:03:07;98652.78;;;17.02;100.00
60871;BME280;46714;50.118;14.462;2022-08-20T09:05:39;98658.03;;;17.03;100.00
60871;BME280;46714;50.118;14.462;2022-08-20T09:08:11;98660.53;;;17.15;100.00
60871;BME280;46714;50.118;14.462;2022-08-20T09:10:40;98660.84;;;17.24;100.00
60871;BME280;46714;50.118;14.462;2022-08-20T09:13:07;98669.34;;;17.22;100.00
60871;BME280;46714;50.118;14.462;2022-08-20T09:15:32;98667.72;;;17.31;100.00
60871;BME280;46714;50.118;14.462;2022-08-20T09:17:58;98662.25;;;17.42;100.00
60871;BME280;46714;50.118;14.462;2022-08-20T09:20:24;98664.75;;;17.53;100.00
60871;BME280;46714;50.118;14.462;2022-08-20T09:22:49;98664.50;;;17.55;100.00
60871;BME280;46714;50.118;14.462;2022-08-20T09:25:15;98659.00;;;17.55;100.00
60871;BME280;46714;50.118;14.462;2022-08-20T09:27:41;98668.63;;;17.57;100.00
60871;BME280;46714;50.118;14.462;2022-08-20T09:30:06;98662.00;;;17.58;100.00
60871;BME280;46714;50.118;14.462;2022-08-20T09:32:33;98656.25;;;17.60;100.00
60871;BME280;46714;50.118;14.462;2022-08-20T09:34:59;98669.44;;;17.58;100.00
60871;BME280;46714;50.118;14.462;2022-08-20T09:37:25;98666.69;;;17.48;100.00
60871;BME280;46714;50.118;14.462;2022-08-20T09:39:53;98670.50;;;17.36;100.00
60871;BME280;46714;50.118;14.462;2022-08-20T09:42:19;98682.03;;;17.23;100.00
60871;BME280;46714;50.118;14.462;2022-08-20T09:45:04;98676.47;;;17.13;100.00
60871;BME280;46714;50.118;14.462;2022-08-20T09:47:30;98675.38;;;17.09;100.00
60871;BME280;46714;50.118;14.462;2022-08-20T09:49:55;98670.38;;;16.95;100.00
60871;BME280;46714;50.118;14.462;2022-08-20T09:52:22;98676.97;;;16.94;100.00
60871;BME280;46714;50.118;14.462;2022-08-20T09:54:50;98674.44;;;16.88;100.00
60871;BME280;46714;50.118;14.462;2022-08-20T09:57:19;98664.00;;;16.85;100.00
60871;BME280;46714;50.118;14.462;2022-08-20T09:59:47;98677.19;;;16.83;100.00
60871;BME280;46714;50.118;14.462;2022-08-20T10:02:17;98671.41;;;16.79;100.00
60871;BME280;46714;50.118;14.462;2022-08-20T10:04:42;98676.91;;;16.79;100.00
60871;BME280;46714;50.118;14.462;2022-08-20T10:07:08;98662.53;;;16.72;100.00
60871;BME280;46714;50.118;14.462;2022-08-20T10:09:34;98660.56;;;16.67;100.00
60871;BME280;46714;50.118;14.462;2022-08-20T10:12:00;98673.13;;;16.48;100.00
60871;BME280;46714;50.118;14.462;2022-08-20T10:14:26;98657.94;;;16.35;100.00
60871;BME280;46714;50.118;14.462;2022-08-20T10:16:55;98664.16;;;16.20;100.00
60871;BME280;46714;50.118;14.462;2022-08-20T10:19:21;98665.50;;;16.18;100.00
60871;BME280;46714;50.118;14.462;2022-08-20T10:21:48;98659.72;;;16.14;100.00
60871;BME280;46714;50.118;14.462;2022-08-20T10:24:15;98666.31;;;16.13;100.00
60871;BME280;46714;50.118;14.462;2022-08-20T10:26:40;98666.81;;;16.10;100.00
60871;BME280;46714;50.118;14.462;2022-08-20T10:29:05;98665.78;;;16.16;100.00
60871;BME280;46714;50.118;14.462;2022-08-20T10:31:30;98671.00;;;16.18;100.00
60871;BME280;46714;50.118;14.462;2022-08-20T10:33:56;98674.25;;;16.15;100.00
60871;BME280;46714;50.118;14.462;2022-08-20T10:36:21;98678.69;;;16.16;100.00
60871;BME280;46714;50.118;14.462;2022-08-20T10:38:47;98681.16;;;16.17;100.00
60871;BME280;46714;50.118;14.462;2022-08-20T10:41:13;98678.44;;;16.17;100.00
60871;BME280;46714;50.118;14.462;2022-08-20T10:43:38;98680.41;;;16.27;100.00
60871;BME280;46714;50.118;14.462;2022-08-20T10:46:04;98683.50;;;16.36;100.00
60871;BME280;46714;50.118;14.462;2022-08-20T10:48:30;98687.31;;;16.34;100.00
60871;BME280;46714;50.118;14.462;2022-08-20T10:50:56;98684.56;;;16.34;100.00
60871;BME280;46714;50.118;14.462;2022-08-20T10:53:21;98692.84;;;16.40;100.00
60871;BME280;46714;50.118;14.462;2022-08-20T10:55:46;98688.19;;;16.40;100.00
60871;BME280;46714;50.118;14.462;2022-08-20T10:58:12;98686.28;;;16.41;100.00
60871;BME280;46714;50.118;14.462;2022-08-20T11:00:38;98685.97;;;16.37;100.00
60871;BME280;46714;50.118;14.462;2022-08-20T11:03:05;98690.31;;;16.33;100.00
60871;BME280;46714;50.118;14.462;2022-08-20T11:05:30;98695.78;;;16.28;100.00
60871;BME280;46714;50.118;14.462;2022-08-20T11:07:55;98702.94;;;16.29;100.00
60871;BME280;46714;50.118;14.462;2022-08-20T11:10:22;98691.91;;;16.24;100.00
60871;BME280;46714;50.118;14.462;2022-08-20T11:12:54;98697.16;;;16.25;100.00
60871;BME280;46714;50.118;14.462;2022-08-20T11:15:20;98700.72;;;16.26;100.00
60871;BME280;46714;50.118;14.462;2022-08-20T11:17:45;98707.06;;;16.26;100.00
60871;BME280;46714;50.118;14.462;2022-08-20T11:20:12;98701.50;;;16.21;100.00
60871;BME280;46714;50.118;14.462;2022-08-20T11:22:41;98704.25;;;16.21;100.00
60871;BME280;46714;50.118;14.462;2022-08-20T11:25:06;98700.16;;;16.24;100.00
60871;BME280;46714;50.118;14.462;2022-08-20T11:27:35;98709.75;;;16.21;100.00
60871;BME280;46714;50.118;14.462;2022-08-20T11:30:05;98707.53;;;16.18;100.00
60871;BME280;46714;50.118;14.462;2022-08-20T11:32:33;98716.88;;;16.17;100.00
60871;BME280;46714;50.118;14.462;2022-08-20T11:34:58;98715.19;;;16.16;100.00
60871;BME280;46714;50.118;14.462;2022-08-20T11:37:23;98708.63;;;16.17;100.00
60871;BME280;46714;50.118;14.462;2022-08-20T11:39:50;98714.13;;;16.17;100.00
60871;BME280;46714;50.118;14.462;2022-08-20T11:42:15;98724.25;;;16.17;100.00
60871;BME280;46714;50.118;14.462;2022-08-20T11:44:41;98718.75;;;16.17;100.00
60871;BME280;46714;50.118;14.462;2022-08-20T11:47:19;98716.31;;;16.15;100.00
60871;BME280;46714;50.118;14.462;2022-08-20T11:49:59;98720.66;;;16.11;100.00
60871;BME280;46714;50.118;14.462;2022-08-20T11:52:30;98719.56;;;16.12;100.00
60871;BME280;46714;50.118;14.462;2022-08-20T11:54:56;98726.41;;;16.09;100.00
60871;BME280;46714;50.118;14.462;2022-08-20T11:57:22;98726.94;;;16.06;100.00
60871;BME280;46714;50.118;14.462;2022-08-20T11:59:54;98727.72;;;16.02;100.00
60871;BME280;46714;50.118;14.462;2022-08-20T12:02:21;98731.03;;;16.04;100.00
60871;BME280;46714;50.118;14.462;2022-08-20T12:04:47;98726.03;;;16.01;100.00
60871;BME280;46714;50.118;14.462;2022-08-20T12:07:22;98725.47;;;15.99;100.00
60871;BME280;46714;50.118;14.462;2022-08-20T12:09:49;98729.56;;;15.96;100.00
60871;BME280;46714;50.118;14.462;2022-08-20T12:12:16;98731.25;;;15.97;100.00
60871;BME280;46714;50.118;14.462;2022-08-20T12:14:43;98727.94;;;15.95;100.00
60871;BME280;46714;50.118;14.462;2022-08-20T12:17:12;98734.25;;;15.96;100.00
60871;BME280;46714;50.118;14.462;2022-08-20T12:19:41;98728.97;;;15.89;100.00
60871;BME280;46714;50.118;14.462;2022-08-20T12:22:07;98727.03;;;15.89;100.00
60871;BME280;46714;50.118;14.462;2022-08-20T12:24:33;98725.66;;;15.87;100.00
60871;BME280;46714;50.118;14.462;2022-08-20T12:29:36;98724.81;;;15.86;100.00
60871;BME280;46714;50.118;14.462;2022-08-20T12:32:05;98725.34;;;15.83;100.00
60871;BME280;46714;50.118;14.462;2022-08-20T12:34:32;98732.69;;;15.78;100.00
60871;BME280;46714;50.118;14.462;2022-08-20T12:36:59;98727.72;;;15.75;100.00
60871;BME280;46714;50.118;14.462;2022-08-20T12:39:25;98738.47;;;15.76;100.00
60871;BME280;46714;50.118;14.462;2022-08-20T12:41:50;98730.72;;;15.73;100.00
60871;BME280;46714;50.118;14.462;2022-08-20T12:44:16;98734.56;;;15.72;100.00
60871;BME280;46714;50.118;14.462;2022-08-20T12:46:41;98730.72;;;15.73;100.00
60871;BME280;46714;50.118;14.462;2022-08-20T12:49:06;98735.41;;;15.73;100.00
60871;BME280;46714;50.118;14.462;2022-08-20T12:51:32;98729.34;;;15.70;100.00